Terminal Aerodrome Forecast
Issued by NWS Tulsa, OK

Home | Current Version | Previous Version | Text Only | Print | Product List | Glossary On
Versions: 1 2 3 4 5 6 7 8 9 10 11
000
FTUS44 KTSA 220520
TAFTUL
TAF
KTUL 220520Z 2206/2306 17013KT P6SM BKN250
     FM221000 19010KT P6SM BKN120
     FM221600 24010KT P6SM SCT050 BKN100
     FM222100 01008KT P6SM BKN050
      TEMPO 2221/2224 4SM TSRA BKN040CB
     FM230000 02007KT P6SM BKN250=

USA.gov is the U.S. government's official web portal to all federal, state and local government web resources and services.